createdAt,value
2022-09-01T00:00:29.082Z,65.33
2022-09-01T00:03:00.737Z,61.57
2022-09-01T00:05:33.188Z,66.63
2022-09-01T00:08:05.407Z,65.60
2022-09-01T00:10:37.335Z,63.10
2022-09-01T00:13:09.045Z,64.47
2022-09-01T00:15:40.773Z,60.73
2022-09-01T00:18:13.577Z,64.53
2022-09-01T00:20:45.258Z,62.30
2022-09-01T00:23:16.840Z,62.63
2022-09-01T00:25:48.423Z,62.37
2022-09-01T00:28:20.450Z,64.23
2022-09-01T00:30:53.475Z,66.70
2022-09-01T00:33:27.605Z,63.23
2022-09-01T00:35:59.897Z,65.47
2022-09-01T00:38:32.733Z,61.50
2022-09-01T00:41:06.698Z,63.67
2022-09-01T00:43:41.090Z,62.42
2022-09-01T00:46:22.605Z,66.13
2022-09-01T00:49:16.548Z,67.20
2022-09-01T00:51:53.136Z,64.57
2022-09-01T00:54:33.343Z,63.30
2022-09-01T00:57:05.327Z,64.57
2022-09-01T00:59:43.392Z,63.63
2022-09-01T01:02:15.799Z,65.63
2022-09-01T01:04:47.512Z,66.37
2022-09-01T01:07:23.048Z,62.63
2022-09-01T01:09:55.154Z,62.93
2022-09-01T01:12:28.071Z,60.73
2022-09-01T01:14:59.668Z,60.07
2022-09-01T01:17:31.977Z,63.23
2022-09-01T01:20:26.336Z,61.00
2022-09-01T01:23:31.032Z,62.87
2022-09-01T01:26:05.580Z,64.63
2022-09-01T01:28:40.703Z,62.47
2022-09-01T01:31:15.759Z,63.83
2022-09-01T01:33:50.765Z,66.20
2022-09-01T01:36:32.732Z,63.80
2022-09-01T01:39:09.872Z,62.90
2022-09-01T01:41:45.311Z,61.13
2022-09-01T01:44:20.338Z,61.40
2022-09-01T01:46:53.412Z,62.30
2022-09-01T01:49:29.084Z,64.97
2022-09-01T01:52:01.261Z,61.90
2022-09-01T01:54:35.802Z,67.20
2022-09-01T01:57:08.125Z,60.93
2022-09-01T01:59:40.886Z,60.93
2022-09-01T02:02:13.016Z,67.30
2022-09-01T02:04:45.937Z,60.37
2022-09-01T02:07:18.085Z,61.63
2022-09-01T02:09:49.858Z,63.80
2022-09-01T02:12:25.114Z,60.10
2022-09-01T02:15:00.489Z,64.27
2022-09-01T02:17:32.184Z,62.70
2022-09-01T02:20:03.985Z,67.07
2022-09-01T02:22:37.921Z,68.60
2022-09-01T02:25:10.754Z,61.20
2022-09-01T02:27:43.720Z,61.70
2022-09-01T02:30:15.417Z,61.00
2022-09-01T02:32:47.194Z,63.47
2022-09-01T02:35:19.087Z,64.10
2022-09-01T02:37:51.478Z,63.20
2022-09-01T02:40:23.333Z,62.93
2022-09-01T02:42:55.305Z,63.50
2022-09-01T02:45:29.705Z,63.63
2022-09-01T02:48:01.525Z,67.10
2022-09-01T02:50:34.371Z,60.53
2022-09-01T02:53:12.105Z,62.87
2022-09-01T02:55:44.169Z,64.13
2022-09-01T02:58:20.100Z,60.77
2022-09-01T03:00:57.723Z,68.53
2022-09-01T03:03:29.735Z,59.93
2022-09-01T03:06:01.401Z,57.80
2022-09-01T03:08:38.765Z,64.97
2022-09-01T03:11:13.142Z,60.67
2022-09-01T03:13:45.737Z,61.63
2022-09-01T03:16:17.705Z,62.50
2022-09-01T03:18:50.618Z,59.90
2022-09-01T03:21:23.640Z,65.13
2022-09-01T03:23:55.695Z,60.47
2022-09-01T03:26:27.679Z,63.07
2022-09-01T03:28:59.925Z,61.60
2022-09-01T03:31:32.043Z,61.47
2022-09-01T03:34:06.673Z,60.93
2022-09-01T03:36:50.470Z,66.20
2022-09-01T03:39:31.266Z,66.87
2022-09-01T03:42:02.981Z,63.27
2022-09-01T03:44:36.131Z,64.70
2022-09-01T03:47:11.074Z,67.53
2022-09-01T03:49:43.613Z,66.00
2022-09-01T03:52:17.391Z,65.20
2022-09-01T03:54:53.975Z,67.82
2022-09-01T03:57:27.514Z,73.70
2022-09-01T04:00:05.328Z,69.20
2022-09-01T04:02:50.520Z,68.67
2022-09-01T04:05:33.874Z,70.30
2022-09-01T04:08:10.908Z,68.87
2022-09-01T04:10:54.418Z,71.73
2022-09-01T04:13:30.491Z,71.73
2022-09-01T04:16:02.863Z,73.83
2022-09-01T04:18:34.897Z,73.33
2022-09-01T04:21:08.211Z,70.13
2022-09-01T04:23:42.205Z,75.43
2022-09-01T04:26:20.337Z,75.63
2022-09-01T04:28:54.176Z,69.97
2022-09-01T04:31:26.630Z,72.10
2022-09-01T04:33:58.345Z,73.73
2022-09-01T04:36:34.063Z,72.73
2022-09-01T04:39:08.929Z,74.03
2022-09-01T04:41:50.531Z,68.23
2022-09-01T04:44:22.337Z,70.57
2022-09-01T04:46:55.322Z,71.33
2022-09-01T04:49:27.130Z,72.37
2022-09-01T04:51:59.160Z,75.03
2022-09-01T04:54:37.021Z,70.23
2022-09-01T04:57:08.872Z,73.57
2022-09-01T04:59:42.337Z,70.00
2022-09-01T05:02:14.131Z,73.80
2022-09-01T05:04:46.364Z,71.23
2022-09-01T05:07:18.281Z,68.80
2022-09-01T05:09:50.014Z,73.00
2022-09-01T05:12:41.878Z,72.77
2022-09-01T05:15:15.268Z,71.23
2022-09-01T05:17:47.520Z,71.57
2022-09-01T05:20:20.814Z,70.80
2022-09-01T05:22:56.594Z,68.20
2022-09-01T05:25:29.029Z,72.73
2022-09-01T05:28:02.463Z,75.33
2022-09-01T05:30:36.888Z,69.07
2022-09-01T05:33:21.108Z,74.33
2022-09-01T05:36:02.017Z,75.13
2022-09-01T05:38:34.685Z,70.00
2022-09-01T05:41:11.223Z,67.60
2022-09-01T05:43:49.007Z,69.20
2022-09-01T05:46:23.688Z,71.20
2022-09-01T05:48:56.140Z,70.37
2022-09-01T05:51:44.405Z,71.30
2022-09-01T05:54:21.509Z,69.60
2022-09-01T05:57:02.162Z,74.43
2022-09-01T05:59:42.060Z,75.63
2022-09-01T06:02:17.824Z,73.30
2022-09-01T06:04:57.174Z,74.07
2022-09-01T06:07:33.875Z,72.23
2022-09-01T06:10:07.433Z,72.63
2022-09-01T06:12:40.614Z,76.00
2022-09-01T06:15:16.118Z,71.53
2022-09-01T06:17:50.854Z,73.63
2022-09-01T06:20:23.605Z,71.27
2022-09-01T06:22:55.175Z,70.80
2022-09-01T06:25:30.543Z,70.90
2022-09-01T06:28:04.564Z,75.03
2022-09-01T06:30:36.727Z,74.95
2022-09-01T06:33:14.135Z,75.63
2022-09-01T06:35:52.661Z,75.40
2022-09-01T06:38:27.326Z,70.23
2022-09-01T06:41:04.172Z,74.20
2022-09-01T06:43:36.628Z,75.03
2022-09-01T06:46:09.832Z,73.40
2022-09-01T06:48:46.588Z,71.80
2022-09-01T06:51:21.890Z,74.77
2022-09-01T06:53:59.948Z,72.53
2022-09-01T06:56:42.757Z,71.83
2022-09-01T06:59:18.091Z,73.57
2022-09-01T07:02:01.443Z,72.23
2022-09-01T07:04:44.997Z,74.63
2022-09-01T07:14:15.332Z,73.00
2022-09-01T07:16:51.778Z,72.97
2022-09-01T07:19:48.243Z,76.00
2022-09-01T07:25:12.760Z,75.77
2022-09-01T07:28:17.416Z,72.93
2022-09-01T07:30:53.062Z,77.93
2022-09-01T07:33:46.277Z,78.40
2022-09-01T07:36:25.807Z,74.30
2022-09-01T07:45:27.581Z,76.43
2022-09-01T07:48:07.458Z,75.73
2022-09-01T07:51:35.570Z,76.90
2022-09-01T07:53:45.200Z,78.50
2022-09-01T07:56:21.876Z,79.73
2022-09-01T07:58:54.828Z,82.57
2022-09-01T08:01:28.691Z,77.63
2022-09-01T08:04:02.310Z,79.47
2022-09-01T08:06:38.453Z,86.23
2022-09-01T08:09:17.310Z,82.40
2022-09-01T08:12:07.738Z,88.43
2022-09-01T08:14:44.278Z,85.97
2022-09-01T08:17:18.136Z,88.73
2022-09-01T08:20:09.912Z,88.73
2022-09-01T08:23:06.368Z,90.83
2022-09-01T08:25:44.108Z,91.17
2022-09-01T08:28:25.984Z,94.30
2022-09-01T08:30:59.366Z,93.23
2022-09-01T08:33:35.200Z,97.15
2022-09-01T08:36:09.172Z,95.67
2022-09-01T08:41:35.179Z,96.40
2022-09-01T08:44:28.941Z,89.65
2022-09-01T08:47:15.223Z,94.47
2022-09-01T08:49:50.684Z,98.73
2022-09-01T08:52:41.674Z,97.17
2022-09-01T08:55:22.246Z,99.87
2022-09-01T08:57:59.709Z,96.03
2022-09-01T09:00:41.991Z,91.10
2022-09-01T09:03:45.155Z,96.80
2022-09-01T09:06:35.223Z,87.53
2022-09-01T09:09:08.972Z,92.07
2022-09-01T09:12:04.660Z,93.50
2022-09-01T09:14:58.077Z,102.40
2022-09-01T09:17:35.795Z,98.50
2022-09-01T09:20:08.866Z,103.27
2022-09-01T09:22:42.957Z,105.65
2022-09-01T09:25:19.344Z,103.68
2022-09-01T09:28:00.576Z,108.43
2022-09-01T09:30:33.125Z,108.87
2022-09-01T09:33:49.750Z,111.80
2022-09-01T09:36:36.025Z,106.63
2022-09-01T09:39:16.664Z,106.43
2022-09-01T09:42:07.735Z,109.67
2022-09-01T09:44:48.998Z,103.70
2022-09-01T09:47:44.162Z,104.23
2022-09-01T09:50:20.203Z,108.53
2022-09-01T09:52:54.159Z,102.97
2022-09-01T09:55:30.036Z,97.25
2022-09-01T09:58:10.863Z,98.47
2022-09-01T10:01:08.796Z,98.13
2022-09-01T10:03:45.311Z,100.63
2022-09-01T10:06:39.732Z,105.57
2022-09-01T10:09:22.294Z,98.80
2022-09-01T10:12:01.620Z,100.23
2022-09-01T10:14:52.201Z,97.43
2022-09-01T10:18:13.530Z,102.73
2022-09-01T10:20:53.487Z,101.67
2022-09-01T10:23:27.668Z,96.97
2022-09-01T10:26:25.439Z,98.60
2022-09-01T10:29:12.190Z,100.30
2022-09-01T10:31:44.196Z,99.97
2022-09-01T10:34:19.654Z,96.70
2022-09-01T10:36:55.714Z,98.40
2022-09-01T10:39:31.138Z,102.33
2022-09-01T10:42:09.100Z,102.13
2022-09-01T10:45:03.677Z,99.43
2022-09-01T10:47:37.910Z,96.03
2022-09-01T10:50:35.534Z,100.13
2022-09-01T10:53:07.687Z,98.00
2022-09-01T10:56:02.679Z,102.13
2022-09-01T11:01:50.019Z,93.30
2022-09-01T11:04:44.969Z,91.37
2022-09-01T11:07:38.893Z,91.72
2022-09-01T11:10:35.875Z,86.60
2022-09-01T11:13:37.764Z,89.97
2022-09-01T11:19:35.064Z,88.67
2022-09-01T11:22:14.251Z,88.23
2022-09-01T11:25:12.328Z,87.23
2022-09-01T11:27:50.502Z,90.93
2022-09-01T11:30:35.794Z,89.17
2022-09-01T11:33:12.977Z,86.97
2022-09-01T11:35:57.354Z,87.20
2022-09-01T11:38:38.312Z,89.47
2022-09-01T11:41:23.314Z,89.37
2022-09-01T11:43:58.133Z,89.47
2022-09-01T11:46:34.850Z,87.07
2022-09-01T11:49:27.385Z,87.37
2022-09-01T11:52:00.857Z,91.40
2022-09-01T11:54:43.297Z,81.50
2022-09-01T11:57:38.485Z,89.03
2022-09-01T12:00:14.094Z,89.83
2022-09-01T12:02:49.372Z,86.23
2022-09-01T12:05:31.982Z,83.37
2022-09-01T12:08:14.025Z,87.23
2022-09-01T12:10:46.881Z,89.73
2022-09-01T12:13:22.476Z,90.53
2022-09-01T12:16:17.102Z,84.77
2022-09-01T12:18:51.831Z,87.72
2022-09-01T12:21:38.359Z,87.43
2022-09-01T12:24:22.068Z,96.17
2022-09-01T12:26:57.380Z,89.35
2022-09-01T12:29:32.285Z,89.47
2022-09-01T12:32:04.920Z,85.00
2022-09-01T12:34:59.033Z,86.73
2022-09-01T12:37:31.159Z,83.90
2022-09-01T12:40:02.913Z,86.27
2022-09-01T12:42:41.542Z,85.20
2022-09-01T12:45:37.011Z,84.83
2022-09-01T12:48:29.508Z,86.87
2022-09-01T12:51:29.260Z,80.23
2022-09-01T12:54:04.766Z,81.47
2022-09-01T12:56:39.017Z,82.28
2022-09-01T12:59:36.297Z,81.13
2022-09-01T13:02:35.022Z,80.07
2022-09-01T13:05:32.759Z,82.57
2022-09-01T13:08:19.972Z,85.10
2022-09-01T13:10:54.630Z,78.30
2022-09-01T13:13:27.635Z,83.43
2022-09-01T13:16:02.568Z,80.00
2022-09-01T13:19:10.563Z,80.97
2022-09-01T13:21:30.119Z,84.80
2022-09-01T13:24:05.038Z,77.10
2022-09-01T13:26:37.110Z,75.23
2022-09-01T13:29:08.828Z,82.20
2022-09-01T13:32:16.580Z,79.93
2022-09-01T13:34:32.687Z,82.73
2022-09-01T13:37:04.478Z,79.33
2022-09-01T13:39:36.112Z,80.67
2022-09-01T13:42:07.978Z,81.83
2022-09-01T13:44:39.641Z,77.70
2022-09-01T13:50:09.149Z,81.13
2022-09-01T13:52:45.847Z,81.57
2022-09-01T13:55:32.861Z,78.10
2022-09-01T13:58:04.618Z,80.07
2022-09-01T14:00:40.471Z,81.10
2022-09-01T14:03:20.863Z,81.00
2022-09-01T14:05:52.506Z,82.27
2022-09-01T14:08:24.073Z,80.63
2022-09-01T14:10:55.671Z,79.57
2022-09-01T14:13:28.390Z,80.00
2022-09-01T14:16:00.653Z,79.03
2022-09-01T14:18:36.922Z,82.57
2022-09-01T14:21:15.925Z,76.63
2022-09-01T14:23:47.501Z,81.63
2022-09-01T14:26:19.737Z,79.67
2022-09-01T14:28:53.256Z,82.80
2022-09-01T14:31:24.900Z,77.07
2022-09-01T14:33:56.452Z,78.60
2022-09-01T14:36:28.120Z,79.70
2022-09-01T14:38:59.765Z,81.10
2022-09-01T14:41:32.449Z,81.80
2022-09-01T14:44:04.028Z,81.07
2022-09-01T14:46:37.232Z,82.50
2022-09-01T14:49:09.552Z,81.40
2022-09-01T14:54:34.422Z,81.73
2022-09-01T14:59:59.496Z,81.17
2022-09-01T15:02:31.991Z,82.10
2022-09-01T15:05:04.426Z,84.67
2022-09-01T15:07:36.457Z,78.23
2022-09-01T15:10:11.629Z,82.30
2022-09-01T15:12:58.985Z,76.50
2022-09-01T15:15:30.830Z,78.50
2022-09-01T15:18:02.637Z,78.67
2022-09-01T15:20:45.636Z,83.17
2022-09-01T15:23:23.776Z,80.67
2022-09-01T15:25:57.755Z,81.33
2022-09-01T15:28:30.090Z,81.80
2022-09-01T15:31:01.857Z,77.40
2022-09-01T15:33:35.523Z,82.63
2022-09-01T15:36:15.784Z,80.43
2022-09-01T15:38:47.625Z,81.47
2022-09-01T15:41:22.331Z,79.87
2022-09-01T15:43:54.861Z,80.17
2022-09-01T15:46:31.993Z,79.50
2022-09-01T15:49:06.482Z,82.73
2022-09-01T15:54:20.311Z,83.60
2022-09-01T15:56:51.897Z,80.97
2022-09-01T15:59:23.473Z,78.70
2022-09-01T16:01:55.502Z,77.70
2022-09-01T16:04:27.953Z,80.80
2022-09-01T16:07:02.785Z,79.50
2022-09-01T16:09:34.473Z,81.33
2022-09-01T16:12:07.870Z,73.73
2022-09-01T16:14:45.636Z,79.20
2022-09-01T16:17:48.735Z,83.27
2022-09-01T16:21:05.192Z,79.38
2022-09-01T16:23:48.838Z,80.07
2022-09-01T16:26:22.625Z,79.67
2022-09-01T16:28:57.641Z,77.95
2022-09-01T16:31:32.622Z,77.23
2022-09-01T16:34:13.977Z,77.20
2022-09-01T16:36:59.754Z,77.63
2022-09-01T16:39:48.123Z,75.80
2022-09-01T16:42:36.890Z,76.57
2022-09-01T16:45:23.411Z,80.53
2022-09-01T16:48:11.365Z,78.83
2022-09-01T16:51:00.443Z,76.70
2022-09-01T16:54:13.748Z,81.50
2022-09-01T16:57:22.839Z,76.30
2022-09-01T17:00:02.197Z,80.03
2022-09-01T17:03:19.681Z,76.47
2022-09-01T17:06:16.395Z,77.20
2022-09-01T17:08:55.732Z,80.10
2022-09-01T17:11:48.981Z,74.03
2022-09-01T17:14:31.498Z,78.10
2022-09-01T17:17:21.368Z,78.43
2022-09-01T17:19:54.399Z,76.57
2022-09-01T17:22:26.067Z,72.47
2022-09-01T17:25:07.866Z,71.13
2022-09-01T17:27:55.614Z,70.70
2022-09-01T17:30:27.394Z,73.63
2022-09-01T17:33:43.658Z,77.83
2022-09-01T17:36:24.018Z,73.43
2022-09-01T17:39:19.578Z,71.93
2022-09-01T17:42:02.876Z,69.27
2022-09-01T17:44:50.989Z,71.07
2022-09-01T17:48:10.616Z,73.53
2022-09-01T17:51:05.553Z,70.83
2022-09-01T17:54:00.876Z,71.38
2022-09-01T17:57:00.556Z,73.07
2022-09-01T17:59:57.403Z,67.33
2022-09-01T18:02:58.227Z,68.17
2022-09-01T18:06:04.849Z,68.63
2022-09-01T18:08:42.301Z,68.43
2022-09-01T18:11:23.729Z,70.17
2022-09-01T18:14:01.360Z,68.50
2022-09-01T18:16:42.082Z,67.60
2022-09-01T18:19:22.585Z,67.73
2022-09-01T18:22:01.448Z,66.50
2022-09-01T18:25:00.235Z,65.37
2022-09-01T18:27:33.513Z,68.20
2022-09-01T18:30:06.056Z,66.50
2022-09-01T18:32:42.245Z,64.73
2022-09-01T18:35:29.758Z,67.30
2022-09-01T18:38:12.584Z,65.70
2022-09-01T18:41:38.732Z,67.87
2022-09-01T18:44:39.616Z,66.10
2022-09-01T18:47:17.397Z,66.60
2022-09-01T18:50:09.367Z,65.07
2022-09-01T18:53:23.194Z,66.03
2022-09-01T18:56:21.603Z,66.73
2022-09-01T18:59:36.871Z,64.77
2022-09-01T19:02:51.644Z,66.33
2022-09-01T19:05:45.336Z,64.47
2022-09-01T19:08:24.805Z,63.30
2022-09-01T19:11:08.481Z,65.83
2022-09-01T19:14:12.172Z,63.40
2022-09-01T19:17:11.455Z,61.47
2022-09-01T19:20:03.624Z,62.57
2022-09-01T19:22:58.210Z,64.10
2022-09-01T19:25:37.167Z,61.10
2022-09-01T19:28:29.967Z,61.37
2022-09-01T19:31:20.677Z,62.47
2022-09-01T19:34:06.387Z,65.23
2022-09-01T19:36:50.465Z,65.97
2022-09-01T19:39:26.713Z,66.53
2022-09-01T19:42:32.732Z,64.80
2022-09-01T19:45:11.119Z,65.03
2022-09-01T19:47:59.009Z,65.03
2022-09-01T19:50:56.553Z,65.90
2022-09-01T19:53:57.139Z,65.20
2022-09-01T19:56:37.531Z,65.37
2022-09-01T19:59:35.570Z,62.73
2022-09-01T20:02:21.306Z,67.30
2022-09-01T20:04:57.258Z,65.90
2022-09-01T20:07:37.853Z,65.37
2022-09-01T20:10:18.249Z,66.53
2022-09-01T20:13:28.056Z,65.73
2022-09-01T20:16:35.497Z,66.73
2022-09-01T20:19:37.964Z,65.10
2022-09-01T20:22:23.840Z,69.37
2022-09-01T20:25:19.226Z,65.27
2022-09-01T20:28:22.962Z,63.83
2022-09-01T20:31:07.487Z,64.50
2022-09-01T20:33:49.447Z,66.18
2022-09-01T20:36:59.230Z,70.67
2022-09-01T20:40:00.986Z,67.87
2022-09-01T20:42:38.462Z,63.60
2022-09-01T20:45:15.960Z,66.57
2022-09-01T20:48:19.572Z,63.00
2022-09-01T20:50:54.460Z,64.23
2022-09-01T20:53:31.735Z,66.30
2022-09-01T20:56:28.184Z,62.70
2022-09-01T20:59:15.194Z,67.80
2022-09-01T21:02:04.978Z,64.30
2022-09-01T21:05:01.201Z,64.27
2022-09-01T21:07:39.281Z,68.30
2022-09-01T21:10:32.505Z,64.97
2022-09-01T21:13:38.184Z,62.23
2022-09-01T21:16:47.933Z,66.80
2022-09-01T21:19:35.429Z,62.60
2022-09-01T21:22:12.276Z,64.60
2022-09-01T21:24:43.850Z,64.83
2022-09-01T21:27:22.680Z,63.40
2022-09-01T21:30:05.050Z,66.83
2022-09-01T21:32:37.473Z,61.07
2022-09-01T21:35:12.828Z,64.27
2022-09-01T21:37:44.544Z,65.53
2022-09-01T21:40:17.854Z,62.00
2022-09-01T21:42:54.418Z,60.30
2022-09-01T21:45:26.265Z,65.67
2022-09-01T21:47:58.062Z,63.07
2022-09-01T21:50:30.104Z,65.63
2022-09-01T21:53:01.925Z,66.03
2022-09-01T21:55:34.066Z,63.73
2022-09-01T21:58:05.966Z,67.50
2022-09-01T22:00:39.422Z,62.87
2022-09-01T22:03:12.262Z,64.90
2022-09-01T22:05:44.917Z,64.20
2022-09-01T22:08:17.387Z,67.90
2022-09-01T22:10:52.023Z,64.30
2022-09-01T22:13:24.984Z,64.33
2022-09-01T22:15:56.603Z,63.60
2022-09-01T22:18:28.320Z,63.60
2022-09-01T22:21:09.315Z,61.43
2022-09-01T22:23:42.005Z,62.30
2022-09-01T22:26:22.634Z,62.93
2022-09-01T22:28:59.459Z,60.97
2022-09-01T22:31:32.572Z,60.87
2022-09-01T22:34:05.694Z,58.93
2022-09-01T22:36:45.483Z,62.17
2022-09-01T22:39:18.405Z,60.13
2022-09-01T22:41:50.357Z,58.93
2022-09-01T22:44:23.440Z,61.43
2022-09-01T22:46:55.124Z,60.93
2022-09-01T22:49:26.840Z,60.47
2022-09-01T22:51:58.491Z,62.70
2022-09-01T22:54:30.488Z,62.60
2022-09-01T22:57:02.391Z,59.67
2022-09-01T22:59:34.087Z,59.97
2022-09-01T23:02:07.133Z,58.50
2022-09-01T23:04:39.459Z,61.43
2022-09-01T23:07:11.118Z,61.43
2022-09-01T23:09:45.661Z,62.93
2022-09-01T23:14:49.704Z,62.53
2022-09-01T23:17:21.425Z,59.97
2022-09-01T23:19:53.129Z,58.77
2022-09-01T23:22:24.736Z,61.43
2022-09-01T23:24:56.312Z,60.93
2022-09-01T23:27:27.944Z,60.90
2022-09-01T23:29:59.605Z,58.87
2022-09-01T23:32:31.229Z,62.17
2022-09-01T23:35:03.592Z,62.30
2022-09-01T23:37:35.182Z,57.50
2022-09-01T23:40:07.908Z,59.83
2022-09-01T23:42:41.422Z,61.07
2022-09-01T23:45:13.767Z,61.20
2022-09-01T23:47:45.345Z,55.63
2022-09-01T23:50:17.065Z,57.33
2022-09-01T23:52:48.705Z,61.93
2022-09-01T23:55:21.486Z,59.47
2022-09-01T23:57:53.047Z,58.93
